createdAt,value
2022-08-05T00:00:08.771Z,8.07
2022-08-05T00:02:57.779Z,7.93
2022-08-05T00:06:05.094Z,7.70
2022-08-05T00:08:55.935Z,7.20
2022-08-05T00:11:48.666Z,7.30
2022-08-05T00:14:43.914Z,7.07
2022-08-05T00:17:33.591Z,6.70
2022-08-05T00:20:22.001Z,6.77
2022-08-05T00:23:30.803Z,5.50
2022-08-05T00:26:27.046Z,6.40
2022-08-05T00:29:15.282Z,5.90
2022-08-05T00:32:12.340Z,5.80
2022-08-05T00:35:06.633Z,5.70
2022-08-05T00:37:57.210Z,4.97
2022-08-05T00:40:53.167Z,4.80
2022-08-05T00:43:49.809Z,4.70
2022-08-05T00:46:43.441Z,4.40
2022-08-05T00:49:32.807Z,3.80
2022-08-05T00:52:32.740Z,4.23
2022-08-05T00:55:34.176Z,3.87
2022-08-05T00:58:32.529Z,3.90
2022-08-05T01:01:42.892Z,3.80
2022-08-05T01:04:29.996Z,3.90
2022-08-05T01:07:18.443Z,3.30
2022-08-05T01:10:09.237Z,4.27
2022-08-05T01:13:12.971Z,3.30
2022-08-05T01:16:05.891Z,4.00
2022-08-05T01:18:59.082Z,4.00
2022-08-05T01:22:23.841Z,3.40
2022-08-05T01:25:53.418Z,3.70
2022-08-05T01:28:50.165Z,3.67
2022-08-05T01:31:45.219Z,3.50
2022-08-05T01:34:38.401Z,3.87
2022-08-05T01:37:36.562Z,3.63
2022-08-05T01:40:29.581Z,4.00
2022-08-05T01:43:22.094Z,3.60
2022-08-05T01:46:16.260Z,3.40
2022-08-05T01:49:25.052Z,3.30
2022-08-05T01:52:17.486Z,3.20
2022-08-05T01:55:10.605Z,3.33
2022-08-05T01:58:12.358Z,3.93
2022-08-05T02:01:05.481Z,3.27
2022-08-05T02:06:38.293Z,3.30
2022-08-05T02:09:28.052Z,2.93
2022-08-05T02:12:26.002Z,2.97
2022-08-05T02:15:19.774Z,2.70
2022-08-05T02:18:32.992Z,2.90
2022-08-05T02:21:26.134Z,3.30
2022-08-05T02:24:27.764Z,3.10
2022-08-05T02:27:16.976Z,2.90
2022-08-05T02:30:06.655Z,2.97
2022-08-05T02:32:58.975Z,2.90
2022-08-05T02:35:56.312Z,2.60
2022-08-05T02:38:53.469Z,3.03
2022-08-05T02:42:00.760Z,3.00
2022-08-05T02:44:51.065Z,3.00
2022-08-05T02:48:07.405Z,3.00
2022-08-05T02:50:51.700Z,3.50
2022-08-05T02:53:41.019Z,3.63
2022-08-05T02:56:29.955Z,3.40
2022-08-05T02:59:22.275Z,3.90
2022-08-05T03:02:18.429Z,3.73
2022-08-05T03:05:10.378Z,4.27
2022-08-05T03:08:06.910Z,3.53
2022-08-05T03:11:55.560Z,4.00
2022-08-05T03:14:04.832Z,3.50
2022-08-05T03:16:57.655Z,3.90
2022-08-05T03:19:47.377Z,3.83
2022-08-05T03:22:38.039Z,3.60
2022-08-05T03:26:30.206Z,3.80
2022-08-05T03:28:41.664Z,4.07
2022-08-05T03:31:57.122Z,4.17
2022-08-05T03:34:41.101Z,3.80
2022-08-05T03:37:31.433Z,3.90
2022-08-05T03:40:34.303Z,3.97
2022-08-05T03:44:08.698Z,4.10
2022-08-05T03:46:33.832Z,3.60
2022-08-05T03:49:30.797Z,3.80
2022-08-05T03:55:00.562Z,3.67
2022-08-05T03:56:10.395Z,3.57
2022-08-05T03:59:04.010Z,4.03
2022-08-05T04:01:58.749Z,3.70
2022-08-05T04:04:47.887Z,3.97
2022-08-05T04:07:57.403Z,4.13
2022-08-05T04:10:47.084Z,3.60
2022-08-05T04:13:49.692Z,4.50
2022-08-05T04:16:39.379Z,4.33
2022-08-05T04:19:28.607Z,4.47
2022-08-05T04:22:20.417Z,5.00
2022-08-05T04:25:11.566Z,4.00
2022-08-05T04:28:11.388Z,4.30
2022-08-05T04:31:01.652Z,3.47
2022-08-05T04:34:31.320Z,3.97
2022-08-05T04:37:05.617Z,4.10
2022-08-05T04:39:55.702Z,4.53
2022-08-05T04:42:45.278Z,4.80
2022-08-05T04:45:48.212Z,4.47
2022-08-05T04:48:39.960Z,4.73
2022-08-05T04:51:30.509Z,4.80
2022-08-05T04:54:19.721Z,4.57
2022-08-05T04:57:07.906Z,4.93
2022-08-05T04:59:58.582Z,5.60
2022-08-05T05:02:47.166Z,4.50
2022-08-05T05:06:38.685Z,4.77
2022-08-05T05:08:44.042Z,5.03
2022-08-05T05:11:52.863Z,5.20
2022-08-05T05:14:50.730Z,5.47
2022-08-05T05:17:55.939Z,4.87
2022-08-05T05:20:46.602Z,5.17
2022-08-05T05:23:39.431Z,5.33
2022-08-05T05:26:46.554Z,5.70
2022-08-05T05:30:03.243Z,5.90
2022-08-05T05:32:49.641Z,5.43
2022-08-05T05:35:39.772Z,4.93
2022-08-05T05:38:30.824Z,5.27
2022-08-05T05:41:19.034Z,5.57
2022-08-05T05:44:35.570Z,5.30
2022-08-05T05:47:21.550Z,5.53
2022-08-05T05:50:16.431Z,5.27
2022-08-05T05:53:21.515Z,5.00
2022-08-05T05:56:11.090Z,5.47
2022-08-05T05:59:03.342Z,5.37
2022-08-05T06:01:57.331Z,5.20
2022-08-05T06:04:49.278Z,5.50
2022-08-05T06:07:41.558Z,5.60
2022-08-05T06:10:37.406Z,5.90
2022-08-05T06:13:40.543Z,5.10
2022-08-05T06:16:38.587Z,5.30
2022-08-05T06:19:34.640Z,5.13
2022-08-05T06:22:25.945Z,5.67
2022-08-05T06:25:25.259Z,5.73
2022-08-05T06:28:23.716Z,5.40
2022-08-05T06:31:18.069Z,6.13
2022-08-05T06:34:10.038Z,5.67
2022-08-05T06:36:59.099Z,5.20
2022-08-05T06:39:47.444Z,5.50
2022-08-05T06:42:37.976Z,5.60
2022-08-05T06:45:44.120Z,5.50
2022-08-05T06:48:56.455Z,5.53
2022-08-05T06:51:47.311Z,5.50
2022-08-05T06:54:35.913Z,5.00
2022-08-05T06:58:03.259Z,5.90
2022-08-05T07:00:33.851Z,5.73
2022-08-05T07:03:37.746Z,5.27
2022-08-05T07:06:27.724Z,5.20
2022-08-05T07:09:16.904Z,5.20
2022-08-05T07:12:08.729Z,5.13
2022-08-05T07:15:14.534Z,5.53
2022-08-05T07:18:29.331Z,5.20
2022-08-05T07:21:25.796Z,4.77
2022-08-05T07:24:14.523Z,4.67
2022-08-05T07:27:02.946Z,4.67
2022-08-05T07:30:25.408Z,4.80
2022-08-05T07:32:59.523Z,3.97
2022-08-05T07:36:04.594Z,4.47
2022-08-05T07:38:57.489Z,4.70
2022-08-05T07:42:13.860Z,4.90
2022-08-05T07:44:54.096Z,4.50
2022-08-05T07:47:43.725Z,4.80
2022-08-05T07:50:33.530Z,4.83
2022-08-05T07:53:23.305Z,4.50
2022-08-05T07:57:02.526Z,5.00
2022-08-05T07:59:40.001Z,4.83
2022-08-05T08:02:31.336Z,4.77
2022-08-05T08:05:39.428Z,4.60
2022-08-05T08:08:29.619Z,4.20
2022-08-05T08:11:17.888Z,4.53
2022-08-05T08:14:18.329Z,4.40
2022-08-05T08:17:10.625Z,4.50
2022-08-05T08:20:44.494Z,4.20
2022-08-05T08:24:03.400Z,4.37
2022-08-05T08:26:34.528Z,4.43
2022-08-05T08:30:03.587Z,4.20
2022-08-05T08:32:31.075Z,4.30
2022-08-05T08:35:20.943Z,5.13
2022-08-05T08:38:16.726Z,4.93
2022-08-05T08:41:20.605Z,4.87
2022-08-05T08:45:22.915Z,4.20
2022-08-05T08:48:07.338Z,5.40
2022-08-05T08:51:03.372Z,4.93
2022-08-05T08:53:49.822Z,4.87
2022-08-05T08:56:47.383Z,4.27
2022-08-05T08:59:41.970Z,4.70
2022-08-05T09:02:35.675Z,4.30
2022-08-05T09:05:38.560Z,4.50
2022-08-05T09:08:35.559Z,4.40
2022-08-05T09:11:53.637Z,4.57
2022-08-05T09:14:58.065Z,3.90
2022-08-05T09:17:49.742Z,4.20
2022-08-05T09:20:38.836Z,4.40
2022-08-05T09:23:28.910Z,3.97
2022-08-05T09:26:32.391Z,3.63
2022-08-05T09:29:21.082Z,4.27
2022-08-05T09:32:40.811Z,3.70
2022-08-05T09:35:30.051Z,3.90
2022-08-05T09:38:29.368Z,4.70
2022-08-05T09:41:18.012Z,4.30
2022-08-05T09:44:07.558Z,4.47
2022-08-05T09:47:10.237Z,4.13
2022-08-05T09:50:03.316Z,4.00
2022-08-05T09:52:58.979Z,3.87
2022-08-05T09:55:58.644Z,3.90
2022-08-05T09:59:17.091Z,3.57
2022-08-05T10:02:06.458Z,3.80
2022-08-05T10:04:54.798Z,3.90
2022-08-05T10:08:36.876Z,3.50
2022-08-05T10:10:59.264Z,3.73
2022-08-05T10:13:49.302Z,3.30
2022-08-05T10:16:52.199Z,3.77
2022-08-05T10:20:03.986Z,3.63
2022-08-05T10:22:55.158Z,3.50
2022-08-05T10:25:46.916Z,3.53
2022-08-05T10:28:36.615Z,3.70
2022-08-05T10:32:53.604Z,3.20
2022-08-05T10:34:33.979Z,3.30
2022-08-05T10:37:22.612Z,3.63
2022-08-05T10:40:27.930Z,3.20
2022-08-05T10:43:30.865Z,3.33
2022-08-05T10:46:23.803Z,3.17
2022-08-05T10:49:16.879Z,3.40
2022-08-05T10:52:10.495Z,2.90
2022-08-05T10:55:05.516Z,3.63
2022-08-05T10:58:11.647Z,3.30
2022-08-05T11:01:06.985Z,3.67
2022-08-05T11:04:08.369Z,3.57
2022-08-05T11:07:08.937Z,3.03
2022-08-05T11:10:04.093Z,2.30
2022-08-05T11:12:59.202Z,2.03
2022-08-05T11:16:11.001Z,1.77
2022-08-05T11:20:11.054Z,2.27
2022-08-05T11:22:44.410Z,2.10
2022-08-05T11:26:05.038Z,2.17
2022-08-05T11:28:53.814Z,2.07
2022-08-05T11:31:57.148Z,2.00
2022-08-05T11:34:53.998Z,1.90
2022-08-05T11:38:28.065Z,2.03
2022-08-05T11:41:15.512Z,1.70
2022-08-05T11:44:12.716Z,1.80
2022-08-05T11:47:48.996Z,1.80
2022-08-05T11:50:39.362Z,1.90
2022-08-05T11:53:28.367Z,2.20
2022-08-05T11:56:45.123Z,2.23
2022-08-05T11:59:41.367Z,2.43
2022-08-05T12:02:40.324Z,2.53
2022-08-05T12:05:36.245Z,2.63
2022-08-05T12:08:28.291Z,2.47
2022-08-05T12:11:21.804Z,3.23
2022-08-05T12:14:10.730Z,2.87
2022-08-05T12:16:58.928Z,3.00
2022-08-05T12:20:26.605Z,3.33
2022-08-05T12:23:10.844Z,2.80
2022-08-05T12:25:59.095Z,3.70
2022-08-05T12:28:47.386Z,3.60
2022-08-05T12:31:46.093Z,4.10
2022-08-05T12:34:39.417Z,3.60
2022-08-05T12:37:31.914Z,4.10
2022-08-05T12:40:26.837Z,4.03
2022-08-05T12:43:20.914Z,3.40
2022-08-05T12:46:28.856Z,2.90
2022-08-05T12:49:18.898Z,2.80
2022-08-05T12:52:22.855Z,2.97
2022-08-05T12:55:23.912Z,3.10
2022-08-05T12:58:51.005Z,3.13
2022-08-05T13:02:02.133Z,2.80
2022-08-05T13:04:54.752Z,3.23
2022-08-05T13:08:02.038Z,2.73
2022-08-05T13:10:51.940Z,2.63
2022-08-05T13:14:05.634Z,2.63
2022-08-05T13:16:50.898Z,2.60
2022-08-05T13:19:51.000Z,2.70
2022-08-05T13:22:43.345Z,2.40
2022-08-05T13:25:58.670Z,1.97
2022-08-05T13:28:44.167Z,1.60
2022-08-05T13:31:33.813Z,1.63
2022-08-05T13:34:40.970Z,1.40
2022-08-05T13:37:34.823Z,1.40
2022-08-05T13:40:36.519Z,1.80
2022-08-05T13:43:44.094Z,1.90
2022-08-05T13:47:02.391Z,2.13
2022-08-05T13:49:49.975Z,1.97
2022-08-05T13:52:38.259Z,2.00
2022-08-05T13:55:41.756Z,1.80
2022-08-05T13:58:34.696Z,1.70
2022-08-05T14:01:44.121Z,1.87
2022-08-05T14:04:55.937Z,1.60
2022-08-05T14:07:59.815Z,1.53
2022-08-05T14:10:53.956Z,1.60
2022-08-05T14:13:54.815Z,2.00
2022-08-05T14:16:45.104Z,1.60
2022-08-05T14:19:54.669Z,1.70
2022-08-05T14:22:49.887Z,2.10
2022-08-05T14:25:44.998Z,1.97
2022-08-05T14:28:33.643Z,2.20
2022-08-05T14:32:02.436Z,1.80
2022-08-05T14:34:34.995Z,1.93
2022-08-05T14:37:45.444Z,2.50
2022-08-05T14:40:34.057Z,2.83
2022-08-05T14:43:22.370Z,2.63
2022-08-05T14:46:31.380Z,2.93
2022-08-05T14:49:19.635Z,2.43
2022-08-05T14:52:11.173Z,2.77
2022-08-05T14:55:09.224Z,2.80
2022-08-05T14:58:12.206Z,2.17
2022-08-05T15:01:02.359Z,2.43
2022-08-05T15:03:51.314Z,2.50
2022-08-05T15:06:41.144Z,2.50
2022-08-05T15:09:51.919Z,2.60
2022-08-05T15:13:00.167Z,2.67
2022-08-05T15:15:55.523Z,2.40
2022-08-05T15:18:47.216Z,2.40
2022-08-05T15:21:35.573Z,2.07
2022-08-05T15:24:23.910Z,2.43
2022-08-05T15:27:12.225Z,2.60
2022-08-05T15:30:03.969Z,2.53
2022-08-05T15:32:52.445Z,2.73
2022-08-05T15:35:45.473Z,3.13
2022-08-05T15:38:40.906Z,2.90
2022-08-05T15:41:55.240Z,2.63
2022-08-05T15:44:41.440Z,2.53
2022-08-05T15:47:31.790Z,2.37
2022-08-05T15:50:25.251Z,2.40
2022-08-05T15:53:14.415Z,1.90
2022-08-05T15:56:05.514Z,1.80
2022-08-05T15:58:55.360Z,1.87
2022-08-05T16:01:52.383Z,1.87
2022-08-05T16:04:43.993Z,1.83
2022-08-05T16:07:32.546Z,2.47
2022-08-05T16:10:25.278Z,11.47
2022-08-05T16:13:23.263Z,4.93
2022-08-05T16:16:12.152Z,7.67
2022-08-05T16:19:00.391Z,2.33
2022-08-05T16:21:59.268Z,2.10
2022-08-05T16:24:52.126Z,2.10
2022-08-05T16:28:04.852Z,1.70
2022-08-05T16:30:54.026Z,1.60
2022-08-05T16:33:42.479Z,1.73
2022-08-05T16:36:30.764Z,1.50
2022-08-05T16:39:20.854Z,1.67
2022-08-05T16:42:14.902Z,1.20
2022-08-05T16:46:04.177Z,1.30
2022-08-05T16:48:25.191Z,0.90
2022-08-05T16:51:15.763Z,1.20
2022-08-05T16:54:16.069Z,1.20
2022-08-05T16:57:21.956Z,1.20
2022-08-05T17:00:12.605Z,0.83
2022-08-05T17:03:02.793Z,1.40
2022-08-05T17:05:54.315Z,1.20
2022-08-05T17:08:52.740Z,1.50
2022-08-05T17:11:48.808Z,1.13
2022-08-05T17:14:39.361Z,1.00
2022-08-05T17:17:42.271Z,1.40
2022-08-05T17:20:31.383Z,1.07
2022-08-05T17:24:05.253Z,1.30
2022-08-05T17:26:30.938Z,1.10
2022-08-05T17:29:19.760Z,1.43
2022-08-05T17:32:17.069Z,3.50
2022-08-05T17:35:06.646Z,1.13
2022-08-05T17:38:00.662Z,0.90
2022-08-05T17:40:53.274Z,1.37
2022-08-05T17:43:46.900Z,1.60
2022-08-05T17:46:38.676Z,1.20
2022-08-05T17:49:59.875Z,0.77
2022-08-05T17:52:53.087Z,0.90
2022-08-05T17:55:43.210Z,0.80
2022-08-05T17:58:35.062Z,0.80
2022-08-05T18:01:23.469Z,1.10
2022-08-05T18:04:12.618Z,0.80
2022-08-05T18:07:12.293Z,0.87
2022-08-05T18:10:10.116Z,1.00
2022-08-05T18:12:59.120Z,0.80
2022-08-05T18:15:51.686Z,0.67
2022-08-05T18:18:40.033Z,0.60
2022-08-05T18:22:09.010Z,0.50
2022-08-05T18:24:37.900Z,0.70
2022-08-05T18:27:27.967Z,0.60
2022-08-05T18:30:16.204Z,0.60
2022-08-05T18:33:04.614Z,0.80
2022-08-05T18:36:03.944Z,0.80
2022-08-05T18:38:53.614Z,1.40
2022-08-05T18:41:56.502Z,1.07
2022-08-05T18:44:56.602Z,0.93
2022-08-05T18:47:44.922Z,0.63
2022-08-05T18:50:54.600Z,0.80
2022-08-05T18:53:50.016Z,0.73
2022-08-05T18:56:38.867Z,0.60
2022-08-05T18:59:44.409Z,0.90
2022-08-05T19:02:38.557Z,0.80
2022-08-05T19:06:11.757Z,0.70
2022-08-05T19:08:35.461Z,0.90
2022-08-05T19:11:28.369Z,0.70
2022-08-05T19:14:59.209Z,0.60
2022-08-05T19:17:33.725Z,0.80
2022-08-05T19:20:35.505Z,0.77
2022-08-05T19:24:07.481Z,0.63
2022-08-05T19:26:33.224Z,0.60
2022-08-05T19:29:21.821Z,0.80
2022-08-05T19:32:11.770Z,0.60
2022-08-05T19:35:05.594Z,0.80
2022-08-05T19:38:06.172Z,0.80
2022-08-05T19:40:55.305Z,0.70
2022-08-05T19:44:05.530Z,0.70
2022-08-05T19:46:52.411Z,0.90
2022-08-05T19:49:40.678Z,1.13
2022-08-05T19:52:32.599Z,0.80
2022-08-05T19:56:14.307Z,0.80
2022-08-05T19:58:30.206Z,1.00
2022-08-05T20:01:28.090Z,0.80
2022-08-05T20:04:16.914Z,0.90
2022-08-05T20:07:13.212Z,0.90
2022-08-05T20:10:04.905Z,0.83
2022-08-05T20:13:02.038Z,0.87
2022-08-05T20:15:52.946Z,1.07
2022-08-05T20:18:45.173Z,0.90
2022-08-05T20:21:38.355Z,0.93
2022-08-05T20:24:28.302Z,1.20
2022-08-05T20:27:17.986Z,0.90
2022-08-05T20:30:11.406Z,1.00
2022-08-05T20:32:59.663Z,1.10
2022-08-05T20:35:48.082Z,1.23
2022-08-05T20:38:40.775Z,0.93
2022-08-05T20:41:44.319Z,0.83
2022-08-05T20:44:38.020Z,1.00
2022-08-05T20:47:32.184Z,1.30
2022-08-05T20:50:20.906Z,1.10
2022-08-05T20:53:16.148Z,1.03
2022-08-05T20:56:28.064Z,1.30
2022-08-05T20:59:19.107Z,1.17
2022-08-05T21:02:18.143Z,1.20
2022-08-05T21:05:07.234Z,1.30
2022-08-05T21:07:57.790Z,1.20
2022-08-05T21:10:48.805Z,1.10
2022-08-05T21:13:47.526Z,1.03
2022-08-05T21:16:45.014Z,1.30
2022-08-05T21:19:47.628Z,1.33
2022-08-05T21:22:38.756Z,1.40
2022-08-05T21:25:33.566Z,1.60
2022-08-05T21:28:23.564Z,1.30
2022-08-05T21:31:12.918Z,1.40
2022-08-05T21:34:01.178Z,1.40
2022-08-05T21:36:51.274Z,1.60
2022-08-05T21:39:40.661Z,1.60
2022-08-05T21:42:40.845Z,1.60
2022-08-05T21:45:56.624Z,1.53
2022-08-05T21:48:40.188Z,1.70
2022-08-05T21:52:22.133Z,1.50
2022-08-05T21:54:40.394Z,1.60
2022-08-05T21:57:31.466Z,1.57
2022-08-05T22:00:20.723Z,1.70
2022-08-05T22:03:14.449Z,1.80
2022-08-05T22:06:02.702Z,1.40
2022-08-05T22:08:53.799Z,1.83
2022-08-05T22:11:46.734Z,1.43
2022-08-05T22:14:37.943Z,1.47
2022-08-05T22:17:27.034Z,1.60
2022-08-05T22:20:17.234Z,1.67
2022-08-05T22:23:23.379Z,1.50
2022-08-05T22:26:29.039Z,1.50
2022-08-05T22:29:26.679Z,1.70
2022-08-05T22:32:19.149Z,1.67
2022-08-05T22:35:08.021Z,1.53
2022-08-05T22:37:58.983Z,1.70
2022-08-05T22:40:49.483Z,1.97
2022-08-05T22:43:38.461Z,1.40
2022-08-05T22:46:28.035Z,1.70
2022-08-05T22:50:17.810Z,1.57
2022-08-05T22:52:32.522Z,1.50
2022-08-05T22:55:24.279Z,1.50
2022-08-05T22:58:14.550Z,1.90
2022-08-05T23:01:02.950Z,1.60
2022-08-05T23:03:59.316Z,1.70
2022-08-05T23:06:48.059Z,1.70
2022-08-05T23:09:57.373Z,1.70
2022-08-05T23:12:44.824Z,1.40
2022-08-05T23:15:35.417Z,1.30
2022-08-05T23:18:24.578Z,1.77
2022-08-05T23:21:16.399Z,1.50
2022-08-05T23:24:11.331Z,1.40
2022-08-05T23:26:59.843Z,1.50
2022-08-05T23:29:49.311Z,1.50
2022-08-05T23:32:40.820Z,1.47
2022-08-05T23:35:34.199Z,2.03
2022-08-05T23:38:25.832Z,1.60
2022-08-05T23:41:14.095Z,1.43
2022-08-05T23:44:05.045Z,2.00
2022-08-05T23:46:54.939Z,1.60
2022-08-05T23:49:45.535Z,1.47
2022-08-05T23:52:35.751Z,1.80
2022-08-05T23:55:30.952Z,1.80
2022-08-05T23:58:32.300Z,1.70
